Time;durP1;ratioP1;P1;durP2;ratioP2;P2;SDS_P1;SDS_P2;PMS_P1;PMS_P2;Temp;Humidity;BMP_temperature;BMP_pressure;BME280_temperature;BME280_humidity;BME280_pressure;Samples;Min_cycle;Max_cycle;Signal;HPM_P1;HPM_P2
2022/11/02 00:01:43;;;;;;;150.13;81.63;;;10.30;99.90;;;;;;6338658;22;20010;-87
2022/11/02 00:04:09;;;;;;;173.75;96.55;;;10.30;99.90;;;;;;6339614;22;20353;-88
2022/11/02 00:06:35;;;;;;;147.02;82.70;;;10.30;99.90;;;;;;6312596;22;20077;-84
2022/11/02 00:09:01;;;;;;;146.20;81.88;;;10.20;99.90;;;;;;6312048;22;20044;-85
2022/11/02 00:11:27;;;;;;;152.65;83.10;;;10.20;99.90;;;;;;6312490;22;20022;-84
2022/11/02 00:13:52;;;;;;;143.98;80.10;;;10.20;99.90;;;;;;6340067;22;20041;-84
2022/11/02 00:16:20;;;;;;;155.77;89.10;;;10.20;99.90;;;;;;6338298;22;20038;-86
2022/11/02 00:18:48;;;;;;;170.43;88.55;;;10.20;99.90;;;;;;6340086;22;19995;-86
2022/11/02 00:21:16;;;;;;;185.02;97.63;;;10.20;99.90;;;;;;6312248;22;19994;-86
2022/11/02 00:23:43;;;;;;;215.73;100.45;;;10.20;99.90;;;;;;6339918;22;19994;-85
2022/11/02 00:26:09;;;;;;;227.00;105.57;;;10.20;99.90;;;;;;6340016;22;20472;-85
2022/11/02 00:28:34;;;;;;;252.82;106.57;;;10.20;99.90;;;;;;6339637;22;20070;-85
2022/11/02 00:31:00;;;;;;;252.60;107.60;;;10.10;99.90;;;;;;6339607;22;20001;-84
2022/11/02 00:33:26;;;;;;;278.38;122.60;;;10.10;99.90;;;;;;6337948;22;20048;-85
2022/11/02 00:35:53;;;;;;;225.15;107.95;;;10.10;99.90;;;;;;6338176;22;19994;-86
2022/11/02 00:38:19;;;;;;;188.15;96.55;;;10.20;99.90;;;;;;6311758;22;20465;-87
2022/11/02 00:40:45;;;;;;;177.90;93.88;;;10.20;99.90;;;;;;6338447;22;19995;-85
2022/11/02 00:43:11;;;;;;;172.75;91.55;;;10.20;99.90;;;;;;6337959;22;20010;-84
2022/11/02 00:45:37;;;;;;;164.43;85.88;;;10.20;99.90;;;;;;6311828;22;20300;-85
2022/11/02 00:48:03;;;;;;;173.77;89.70;;;10.30;99.90;;;;;;6337743;22;19999;-86
2022/11/02 00:50:29;;;;;;;209.02;103.45;;;10.30;99.90;;;;;;6339848;22;19998;-86
2022/11/02 00:52:55;;;;;;;189.10;95.47;;;10.30;99.90;;;;;;6311454;22;20023;-86
2022/11/02 00:55:21;;;;;;;186.02;93.88;;;10.30;99.90;;;;;;6337944;22;19999;-87
2022/11/02 00:57:47;;;;;;;199.95;100.40;;;10.30;99.90;;;;;;6338146;22;19991;-87
2022/11/02 01:00:13;;;;;;;205.27;100.97;;;10.30;99.90;;;;;;6339002;22;20303;-84
2022/11/02 01:02:40;;;;;;;183.45;96.20;;;10.30;99.90;;;;;;6312163;22;19998;-85
2022/11/02 01:05:07;;;;;;;198.57;98.45;;;10.30;99.90;;;;;;6337802;22;20023;-88
2022/11/02 01:07:33;;;;;;;192.30;98.40;;;10.30;99.90;;;;;;6311913;22;20033;-86
2022/11/02 01:09:59;;;;;;;182.50;96.18;;;10.30;99.90;;;;;;6337813;22;20011;-84
2022/11/02 01:12:25;;;;;;;177.02;97.25;;;10.30;99.90;;;;;;6311802;22;20343;-85
2022/11/02 01:14:51;;;;;;;172.35;94.43;;;10.30;99.90;;;;;;6311740;22;20037;-85
2022/11/02 01:17:18;;;;;;;173.52;92.05;;;10.30;99.90;;;;;;6339561;22;20308;-85
2022/11/02 01:19:44;;;;;;;178.70;97.63;;;10.30;99.90;;;;;;6311395;22;20026;-85
2022/11/02 01:22:09;;;;;;;175.95;96.90;;;10.40;99.90;;;;;;6339569;22;19994;-84
2022/11/02 01:24:36;;;;;;;176.60;95.55;;;10.40;99.90;;;;;;6337913;22;19999;-84
2022/11/02 01:27:02;;;;;;;181.02;97.80;;;10.30;99.90;;;;;;6311632;22;20407;-88
2022/11/02 01:29:27;;;;;;;176.27;96.75;;;10.30;99.90;;;;;;6339441;22;20048;-86
2022/11/02 01:31:53;;;;;;;159.30;89.00;;;10.30;99.90;;;;;;6337372;22;19995;-85
2022/11/02 01:34:20;;;;;;;179.38;93.57;;;10.30;99.90;;;;;;6337532;22;20047;-85
2022/11/02 01:36:46;;;;;;;172.50;91.22;;;10.30;99.90;;;;;;6339400;22;20015;-85
2022/11/02 01:39:13;;;;;;;177.38;94.53;;;10.30;99.90;;;;;;6339273;22;20078;-86
2022/11/02 01:41:39;;;;;;;169.05;93.78;;;10.30;99.90;;;;;;6311515;22;20017;-88
2022/11/02 01:44:25;;;;;;;172.98;96.75;;;10.40;99.90;;;;;;6311629;22;20002;-85
2022/11/02 01:46:55;;;;;;;182.30;97.93;;;10.40;99.90;;;;;;6311506;22;20376;-86
2022/11/02 01:49:21;;;;;;;172.05;93.63;;;10.40;99.90;;;;;;6311508;22;20013;-83
2022/11/02 01:52:14;;;;;;;178.38;95.65;;;10.40;99.90;;;;;;6311512;22;19991;-85
2022/11/02 01:54:51;;;;;;;171.52;95.68;;;10.40;99.90;;;;;;6311940;22;20382;-85
2022/11/02 01:57:20;;;;;;;170.48;95.63;;;10.40;99.90;;;;;;6339489;22;20477;-85
2022/11/02 01:59:51;;;;;;;187.90;102.65;;;10.40;99.90;;;;;;6338980;22;19991;-85
2022/11/02 02:02:21;;;;;;;190.27;103.85;;;10.40;99.90;;;;;;6339069;22;19995;-86
2022/11/02 02:04:51;;;;;;;185.73;100.30;;;10.40;99.90;;;;;;6311689;22;20087;-84
2022/11/02 02:07:18;;;;;;;180.90;101.60;;;10.40;99.90;;;;;;6311620;22;20021;-85
2022/11/02 02:09:44;;;;;;;187.68;99.82;;;10.40;99.90;;;;;;6311353;22;20011;-85
2022/11/02 02:12:12;;;;;;;187.18;99.80;;;10.40;99.90;;;;;;6311655;22;20005;-84
2022/11/02 02:14:38;;;;;;;183.48;102.93;;;10.40;99.90;;;;;;6337731;22;20427;-85
2022/11/02 02:17:32;;;;;;;191.10;104.05;;;10.40;99.90;;;;;;6310907;22;20060;-86
2022/11/02 02:20:24;;;;;;;190.20;103.90;;;10.40;99.90;;;;;;6340772;22;19991;-85
2022/11/02 02:22:56;;;;;;;206.27;106.95;;;10.50;99.90;;;;;;6339947;22;19991;-84
2022/11/02 02:25:47;;;;;;;;;;;10.50;99.90;;;;;;6341493;22;20410;-85
2022/11/02 02:28:41;;;;;;;173.15;95.45;;;10.50;99.90;;;;;;6340531;22;20300;-85
2022/11/02 02:31:24;;;;;;;176.85;95.80;;;10.50;99.90;;;;;;6313245;22;20006;-84
2022/11/02 02:33:57;;;;;;;174.45;94.65;;;10.50;99.90;;;;;;6312988;22;20018;-86
2022/11/02 02:36:30;;;;;;;195.75;98.55;;;10.50;99.90;;;;;;6340539;22;19995;-84
2022/11/02 02:39:15;;;;;;;174.98;93.70;;;10.40;99.90;;;;;;6313116;22;20480;-84
2022/11/02 02:41:47;;;;;;;169.18;93.28;;;10.50;99.90;;;;;;6340882;22;19991;-86
2022/11/02 02:44:21;;;;;;;168.25;92.65;;;10.40;99.90;;;;;;6312933;22;20029;-86
2022/11/02 02:46:56;;;;;;;167.88;93.38;;;10.50;99.90;;;;;;6313377;22;20330;-84
2022/11/02 02:49:34;;;;;;;163.73;89.18;;;10.50;99.90;;;;;;6340394;22;20307;-84
2022/11/02 02:52:00;;;;;;;161.43;85.38;;;10.50;99.90;;;;;;6312744;22;19994;-85
2022/11/02 02:54:40;;;;;;;178.38;92.85;;;10.50;99.90;;;;;;6312939;22;19998;-86
2022/11/02 02:57:11;;;;;;;178.70;93.25;;;10.50;99.90;;;;;;6312785;22;19995;-86
2022/11/02 02:59:44;;;;;;;163.82;88.38;;;10.50;99.90;;;;;;6313112;22;20022;-85
2022/11/02 03:02:25;;;;;;;163.00;87.10;;;10.50;99.90;;;;;;6312729;22;19999;-84
2022/11/02 03:04:50;;;;;;;167.07;89.68;;;10.50;99.90;;;;;;6340476;22;20446;-86
2022/11/02 03:07:23;;;;;;;169.15;91.03;;;10.50;99.90;;;;;;6339055;22;20026;-84
2022/11/02 03:09:50;;;;;;;174.05;89.18;;;10.40;99.90;;;;;;6340380;22;20002;-86
2022/11/02 03:12:22;;;;;;;167.75;91.10;;;10.40;99.90;;;;;;6312648;22;19995;-84
2022/11/02 03:15:10;;;;;;;174.60;91.72;;;10.40;99.90;;;;;;6340188;22;19987;-86
2022/11/02 03:18:01;;;;;;;190.38;101.70;;;10.40;99.90;;;;;;6340386;22;20067;-85
2022/11/02 03:21:06;;;;;;;182.95;99.07;;;10.40;99.90;;;;;;6313340;22;20077;-85
2022/11/02 03:23:53;;;;;;;184.68;97.03;;;10.40;99.90;;;;;;6311511;22;19994;-85
2022/11/02 03:26:28;;;;;;;175.98;96.60;;;10.30;99.90;;;;;;6312787;22;19998;-85
2022/11/02 03:29:09;;;;;;;169.45;95.95;;;10.30;99.90;;;;;;6312441;22;20026;-85
2022/11/02 03:31:50;;;;;;;182.68;98.18;;;10.30;99.90;;;;;;6312830;22;20013;-85
2022/11/02 03:34:25;;;;;;;177.00;93.60;;;10.20;99.90;;;;;;6312527;22;20021;-85
2022/11/02 03:37:09;;;;;;;164.10;92.07;;;10.20;99.90;;;;;;6312358;22;19999;-85
2022/11/02 03:39:43;;;;;;;171.35;94.68;;;10.20;99.90;;;;;;6340156;22;20077;-84
2022/11/02 03:42:12;;;;;;;171.02;91.88;;;10.20;99.90;;;;;;6340267;22;19991;-85
2022/11/02 03:44:40;;;;;;;171.45;95.07;;;10.20;99.90;;;;;;6312709;22;19999;-84
2022/11/02 03:47:09;;;;;;;164.05;88.57;;;10.10;99.90;;;;;;6339894;22;19991;-86
2022/11/02 03:49:38;;;;;;;159.85;90.22;;;10.10;99.90;;;;;;6312456;22;20094;-85
2022/11/02 03:52:10;;;;;;;162.25;89.75;;;10.10;99.90;;;;;;6312112;22;19994;-83
2022/11/02 03:54:41;;;;;;;171.10;90.00;;;10.10;99.90;;;;;;6340111;22;20040;-84
2022/11/02 03:57:11;;;;;;;150.65;85.55;;;10.00;99.90;;;;;;6312418;22;20026;-83
2022/11/02 03:59:37;;;;;;;162.25;90.00;;;10.00;99.90;;;;;;6340336;22;20023;-85
2022/11/02 04:02:03;;;;;;;158.13;85.22;;;10.00;99.90;;;;;;6338470;22;20423;-84
2022/11/02 04:04:29;;;;;;;169.25;91.18;;;10.00;99.90;;;;;;6338546;22;20396;-84
2022/11/02 04:06:55;;;;;;;169.13;91.63;;;10.00;99.90;;;;;;6338503;22;20306;-85
2022/11/02 04:09:21;;;;;;;165.13;88.60;;;9.90;99.90;;;;;;6312316;22;20431;-84
2022/11/02 04:14:36;;;;;;;220.65;108.20;;;9.90;99.90;;;;;;6339695;22;20033;-83
2022/11/02 04:19:51;;;;;;;252.90;111.70;;;9.90;99.90;;;;;;6339687;22;20025;-85
2022/11/02 04:25:14;;;;;;;500.50;132.07;;;9.80;99.90;;;;;;6339501;22;20006;-84
2022/11/02 04:27:44;;;;;;;606.40;144.20;;;9.80;99.90;;;;;;6312124;22;19991;-84
2022/11/02 04:30:10;;;;;;;509.83;139.45;;;9.80;99.90;;;;;;6311357;22;20002;-85
2022/11/02 04:35:28;;;;;;;459.73;143.63;;;9.70;99.90;;;;;;6339254;22;20029;-85
2022/11/02 04:40:38;;;;;;;652.05;140.80;;;9.70;99.90;;;;;;6339026;22;20005;-84
2022/11/02 04:43:03;;;;;;;644.65;152.38;;;9.70;99.90;;;;;;6337726;22;20074;-84
2022/11/02 04:45:29;;;;;;;560.10;150.05;;;9.60;99.90;;;;;;6338308;22;19994;-84
2022/11/02 04:48:06;;;;;;;657.70;156.80;;;9.60;99.90;;;;;;6337956;22;19990;-85
2022/11/02 04:50:32;;;;;;;534.65;144.63;;;9.60;99.90;;;;;;6339420;22;19990;-86
2022/11/02 04:53:00;;;;;;;572.95;145.30;;;9.60;99.90;;;;;;6339542;22;19987;-84
2022/11/02 04:55:27;;;;;;;338.60;131.73;;;9.60;99.90;;;;;;6311734;22;19995;-86
2022/11/02 04:57:53;;;;;;;587.35;149.07;;;9.60;99.90;;;;;;6311714;22;19998;-84
2022/11/02 05:00:20;;;;;;;503.63;145.65;;;9.60;99.90;;;;;;6337592;22;19994;-85
2022/11/02 05:02:49;;;;;;;405.67;142.05;;;9.50;99.90;;;;;;6311764;22;20005;-84
2022/11/02 05:05:16;;;;;;;353.52;139.63;;;9.60;99.90;;;;;;6337627;22;19998;-85
2022/11/02 05:07:45;;;;;;;384.15;146.40;;;9.60;99.90;;;;;;6339409;22;19991;-86
2022/11/02 05:10:11;;;;;;;294.35;132.80;;;9.70;99.90;;;;;;6311288;22;20085;-84
2022/11/02 05:12:36;;;;;;;322.25;139.07;;;9.70;99.90;;;;;;6339187;22;20025;-85
2022/11/02 05:15:03;;;;;;;365.30;139.82;;;9.70;99.90;;;;;;6338896;22;20025;-84
2022/11/02 05:17:29;;;;;;;300.42;135.93;;;9.80;99.90;;;;;;6311675;22;19998;-86
2022/11/02 05:19:55;;;;;;;288.67;137.68;;;9.80;99.90;;;;;;6311781;22;20092;-86
2022/11/02 05:22:21;;;;;;;500.02;209.00;;;9.90;99.90;;;;;;6337602;22;20010;-85
2022/11/02 05:24:47;;;;;;;383.88;178.85;;;9.90;99.90;;;;;;6339395;22;20300;-86
2022/11/02 05:27:12;;;;;;;468.80;192.02;;;10.00;99.90;;;;;;6338087;22;19991;-86
2022/11/02 05:29:38;;;;;;;616.35;172.52;;;10.00;99.90;;;;;;6337603;22;20032;-84
2022/11/02 05:32:04;;;;;;;443.00;159.02;;;10.00;99.90;;;;;;6337468;22;19999;-84
2022/11/02 05:34:30;;;;;;;366.13;144.50;;;10.10;99.90;;;;;;6337776;22;19998;-85
2022/11/02 05:36:55;;;;;;;458.98;160.65;;;10.10;99.90;;;;;;6339235;22;19991;-86
2022/11/02 05:39:21;;;;;;;447.63;142.90;;;10.20;99.90;;;;;;6339334;22;20284;-85
2022/11/02 05:41:47;;;;;;;549.80;142.25;;;10.20;99.90;;;;;;6339308;22;20069;-84
2022/11/02 05:44:12;;;;;;;741.47;153.20;;;10.10;99.90;;;;;;6337625;22;20073;-86
2022/11/02 05:46:38;;;;;;;644.35;161.65;;;10.10;99.90;;;;;;6339032;22;20295;-84
2022/11/02 05:49:04;;;;;;;675.28;157.63;;;10.10;99.90;;;;;;6339127;22;20007;-84
2022/11/02 05:51:30;;;;;;;626.88;140.80;;;10.00;99.90;;;;;;6337650;22;20408;-84
2022/11/02 05:53:55;;;;;;;531.35;134.98;;;10.00;99.90;;;;;;6339955;22;20307;-84
2022/11/02 05:56:21;;;;;;;631.13;129.23;;;10.00;99.90;;;;;;6339576;22;19995;-85
2022/11/02 05:58:47;;;;;;;608.33;125.40;;;10.00;99.90;;;;;;6341226;22;19999;-85
2022/11/02 06:01:12;;;;;;;525.65;121.40;;;9.90;99.90;;;;;;6338679;22;19995;-83
2022/11/02 06:03:38;;;;;;;518.22;129.95;;;9.90;99.90;;;;;;6339206;22;20073;-86
2022/11/02 06:06:06;;;;;;;398.00;124.07;;;10.00;99.90;;;;;;6339302;22;20391;-83
2022/11/02 06:08:33;;;;;;;615.45;142.20;;;10.00;99.90;;;;;;6313712;22;20006;-85
2022/11/02 06:11:12;;;;;;;475.02;133.70;;;10.10;99.90;;;;;;6340416;22;19995;-83
2022/11/02 06:13:39;;;;;;;539.08;133.18;;;10.10;99.90;;;;;;6313024;22;20430;-84
2022/11/02 06:16:08;;;;;;;525.97;133.25;;;10.10;99.90;;;;;;6312992;22;20014;-84
2022/11/02 06:18:35;;;;;;;585.65;140.93;;;10.10;99.90;;;;;;6312916;22;20032;-85
2022/11/02 06:21:00;;;;;;;419.23;123.00;;;10.10;99.90;;;;;;6312957;22;19998;-84
2022/11/02 06:23:27;;;;;;;384.15;123.05;;;10.10;99.90;;;;;;6339230;22;19995;-85
2022/11/02 06:25:55;;;;;;;367.83;125.22;;;10.10;99.90;;;;;;6313187;22;20005;-86
2022/11/02 06:28:21;;;;;;;399.58;123.65;;;10.10;99.90;;;;;;6312922;22;20414;-84
2022/11/02 06:30:48;;;;;;;298.63;117.40;;;10.20;99.90;;;;;;6339142;22;19999;-84
2022/11/02 06:33:15;;;;;;;491.02;133.05;;;10.20;99.90;;;;;;6340627;22;20113;-87
2022/11/02 06:35:44;;;;;;;439.65;118.50;;;10.20;99.90;;;;;;6340123;22;20002;-84
2022/11/02 06:38:10;;;;;;;379.50;103.70;;;10.20;99.90;;;;;;6340674;22;20045;-83
2022/11/02 06:40:36;;;;;;;306.85;103.93;;;10.10;99.90;;;;;;6338614;22;19999;-86
2022/11/02 06:43:02;;;;;;;519.85;110.55;;;10.10;99.90;;;;;;6338478;22;20006;-85
2022/11/02 06:45:27;;;;;;;412.15;107.28;;;10.10;99.90;;;;;;6340087;22;19991;-84
2022/11/02 06:47:53;;;;;;;551.47;111.22;;;10.10;99.90;;;;;;6338848;22;20005;-84
2022/11/02 06:50:20;;;;;;;476.88;113.63;;;10.10;99.90;;;;;;6338854;22;20056;-83
2022/11/02 06:52:46;;;;;;;523.65;121.97;;;10.10;99.90;;;;;;6338674;22;20006;-84
2022/11/02 06:55:14;;;;;;;342.67;111.10;;;10.10;99.90;;;;;;6338634;22;20006;-85
2022/11/02 06:57:41;;;;;;;484.42;125.45;;;10.00;99.90;;;;;;6312795;22;19991;-85
2022/11/02 07:00:11;;;;;;;566.35;132.52;;;10.10;99.90;;;;;;6340145;22;19994;-84
2022/11/02 07:02:38;;;;;;;437.05;119.50;;;10.10;99.90;;;;;;6340132;22;19997;-82
2022/11/02 07:05:04;;;;;;;518.38;132.68;;;10.10;99.90;;;;;;6340058;22;20296;-83
2022/11/02 07:07:30;;;;;;;445.13;126.68;;;10.00;99.90;;;;;;6312722;22;20434;-84
2022/11/02 07:09:55;;;;;;;441.15;112.00;;;10.00;99.90;;;;;;6338653;22;20412;-84
2022/11/02 07:12:21;;;;;;;315.25;113.07;;;9.90;99.90;;;;;;6339055;22;20026;-82
2022/11/02 07:14:47;;;;;;;419.65;108.93;;;9.90;99.90;;;;;;6338461;22;20434;-84
2022/11/02 07:17:13;;;;;;;374.42;101.40;;;9.90;99.90;;;;;;6340430;22;20022;-83
2022/11/02 07:19:38;;;;;;;409.05;94.45;;;9.90;99.90;;;;;;6339992;22;20069;-84
2022/11/02 07:22:04;;;;;;;261.27;88.43;;;9.70;99.90;;;;;;6338637;22;20284;-86
2022/11/02 07:24:30;;;;;;;289.50;90.57;;;9.70;99.90;;;;;;6339997;22;20413;-88
2022/11/02 07:26:56;;;;;;;260.58;84.40;;;9.70;99.90;;;;;;6340382;22;20066;-84
2022/11/02 07:29:21;;;;;;;334.15;87.97;;;9.80;99.90;;;;;;6338511;22;20017;-85
2022/11/02 07:31:47;;;;;;;494.17;97.97;;;9.80;99.90;;;;;;6340247;22;19995;-86
2022/11/02 07:34:13;;;;;;;457.27;91.57;;;9.70;99.90;;;;;;6338613;22;20048;-86
2022/11/02 07:36:39;;;;;;;461.55;92.70;;;9.70;99.90;;;;;;6340423;22;19995;-86
2022/11/02 07:39:06;;;;;;;284.55;82.35;;;9.70;99.90;;;;;;6338285;22;20403;-84
2022/11/02 07:41:32;;;;;;;327.25;88.53;;;9.60;99.90;;;;;;6340295;22;19999;-85
2022/11/02 07:43:58;;;;;;;213.18;83.10;;;9.70;99.90;;;;;;6339571;22;20358;-86
2022/11/02 07:46:24;;;;;;;245.27;92.38;;;9.80;99.90;;;;;;6338551;22;19991;-85
2022/11/02 07:48:50;;;;;;;249.45;88.07;;;9.80;99.90;;;;;;6339465;22;20003;-86
2022/11/02 07:51:16;;;;;;;297.63;88.07;;;9.90;99.90;;;;;;6339835;22;20043;-85
2022/11/02 07:53:41;;;;;;;240.65;85.53;;;9.90;99.90;;;;;;6340327;22;20022;-86
2022/11/02 07:56:08;;;;;;;265.58;90.80;;;9.90;99.90;;;;;;6340184;22;20074;-86
2022/11/02 07:58:33;;;;;;;218.57;88.85;;;9.90;99.90;;;;;;6340088;22;19994;-85
2022/11/02 08:01:00;;;;;;;240.98;86.07;;;9.90;99.90;;;;;;6338647;22;20113;-84
2022/11/02 08:03:27;;;;;;;193.57;84.63;;;9.90;99.90;;;;;;6339749;22;19991;-83
2022/11/02 08:05:53;;;;;;;230.13;77.22;;;10.00;99.90;;;;;;6311988;22;19999;-81
2022/11/02 08:08:20;;;;;;;184.30;76.00;;;10.00;99.90;;;;;;6340241;22;20349;-82
2022/11/02 08:10:49;;;;;;;195.32;82.85;;;10.10;99.90;;;;;;6311751;22;20419;-84
2022/11/02 08:13:17;;;;;;;234.05;89.25;;;10.10;99.90;;;;;;6312107;22;20073;-83
2022/11/02 08:15:43;;;;;;;202.45;85.72;;;10.10;99.90;;;;;;6339468;22;20003;-83
2022/11/02 08:18:13;;;;;;;188.18;74.50;;;10.20;99.90;;;;;;6339935;22;20070;-84
2022/11/02 08:20:39;;;;;;;193.93;76.20;;;10.20;99.90;;;;;;6311995;22;20434;-83
2022/11/02 08:23:07;;;;;;;196.95;74.80;;;10.30;99.90;;;;;;6337874;22;20017;-81
2022/11/02 08:25:34;;;;;;;232.77;79.45;;;10.30;99.90;;;;;;6339945;22;19994;-82
2022/11/02 08:28:02;;;;;;;197.82;77.60;;;10.30;99.90;;;;;;6339633;22;20037;-81
2022/11/02 08:30:29;;;;;;;229.40;83.88;;;10.30;99.90;;;;;;6312289;22;20003;-82
2022/11/02 08:33:05;;;;;;;209.75;76.60;;;10.30;99.90;;;;;;6339370;22;20407;-81
2022/11/02 08:35:32;;;;;;;214.90;75.22;;;10.30;99.90;;;;;;6340146;22;19995;-81
2022/11/02 08:37:58;;;;;;;211.07;76.15;;;10.40;99.90;;;;;;6339824;22;20434;-83
2022/11/02 08:40:25;;;;;;;177.15;78.75;;;10.40;99.90;;;;;;6311069;22;19999;-81
2022/11/02 08:43:01;;;;;;;201.38;81.28;;;10.40;99.90;;;;;;6339961;22;20103;-82
2022/11/02 08:45:29;;;;;;;216.90;84.80;;;10.50;99.90;;;;;;6311976;22;19998;-82
2022/11/02 08:47:55;;;;;;;298.65;86.80;;;10.60;99.90;;;;;;6311772;22;20380;-84
2022/11/02 08:50:22;;;;;;;187.65;71.47;;;10.70;99.90;;;;;;6312079;22;20009;-83
2022/11/02 08:52:47;;;;;;;173.93;72.05;;;10.80;99.90;;;;;;6339604;22;19991;-82
2022/11/02 08:55:13;;;;;;;174.48;63.22;;;10.90;99.90;;;;;;6339253;22;20002;-82
2022/11/02 08:57:49;;;;;;;141.93;62.10;;;10.90;99.90;;;;;;6339866;22;20318;-82
2022/11/02 09:00:16;;;;;;;209.18;65.03;;;11.10;99.90;;;;;;6339298;22;19991;-83
2022/11/02 09:02:42;;;;;;;277.10;62.97;;;11.10;99.90;;;;;;6339913;22;19998;-82
2022/11/02 09:05:09;;;;;;;200.52;62.45;;;11.10;99.90;;;;;;6339636;22;19991;-82
2022/11/02 09:07:35;;;;;;;190.60;66.03;;;11.00;99.90;;;;;;6311115;22;19999;-82
2022/11/02 09:10:01;;;;;;;183.43;66.53;;;10.90;99.90;;;;;;6311140;22;19998;-82
2022/11/02 09:12:27;;;;;;;211.65;74.13;;;11.00;99.90;;;;;;6339337;22;20007;-82
2022/11/02 09:14:52;;;;;;;331.95;78.53;;;11.00;99.90;;;;;;6338890;22;19991;-83
2022/11/02 09:17:18;;;;;;;244.68;97.95;;;11.00;99.90;;;;;;6340148;22;20373;-83
2022/11/02 09:19:44;;;;;;;245.90;86.32;;;11.10;99.90;;;;;;6339240;22;19998;-86
2022/11/02 09:22:10;;;;;;;222.88;91.63;;;11.10;99.90;;;;;;6337749;22;19999;-85
2022/11/02 09:24:35;;;;;;;178.77;76.60;;;11.20;99.90;;;;;;6338167;22;20075;-84
2022/11/02 09:27:01;;;;;;;244.57;88.60;;;11.20;99.90;;;;;;6339695;22;20422;-85
2022/11/02 09:29:27;;;;;;;200.27;79.07;;;11.20;99.90;;;;;;6339880;22;20010;-84
2022/11/02 09:31:52;;;;;;;187.02;78.20;;;11.10;99.90;;;;;;6339797;22;20369;-86
2022/11/02 09:34:18;;;;;;;188.48;77.63;;;11.20;99.90;;;;;;6341524;22;19991;-84
2022/11/02 09:36:44;;;;;;;220.32;78.28;;;11.20;99.90;;;;;;6339722;22;19995;-85
2022/11/02 09:39:10;;;;;;;238.52;76.15;;;11.20;99.90;;;;;;6341214;22;20005;-85
2022/11/02 09:41:50;;;;;;;201.55;74.75;;;11.10;99.90;;;;;;6339839;22;19995;-85
2022/11/02 09:44:26;;;;;;;250.15;72.95;;;11.10;99.90;;;;;;6341263;22;20002;-84
2022/11/02 09:46:52;;;;;;;206.63;73.65;;;11.10;99.90;;;;;;6341945;22;20029;-85
2022/11/02 09:49:22;;;;;;;207.35;75.75;;;11.20;99.90;;;;;;6313568;22;20307;-84
2022/11/02 09:51:56;;;;;;;264.25;80.82;;;11.20;99.90;;;;;;6313519;22;20025;-84
2022/11/02 09:54:34;;;;;;;199.23;79.00;;;11.30;99.90;;;;;;6313692;22;20285;-85
2022/11/02 09:57:15;;;;;;;166.93;72.07;;;11.40;99.90;;;;;;6341278;22;19994;-84
2022/11/02 09:59:41;;;;;;;190.23;78.85;;;11.50;99.90;;;;;;6341037;22;19999;-84
2022/11/02 10:02:09;;;;;;;198.32;74.68;;;11.50;99.90;;;;;;6341147;22;20017;-83
2022/11/02 10:05:07;;;;;;;190.98;83.65;;;11.50;99.90;;;;;;6340658;22;20015;-84
2022/11/02 10:08:04;;;;;;;191.50;62.38;;;11.50;99.90;;;;;;6339798;22;19999;-84
2022/11/02 10:10:37;;;;;;;159.15;68.07;;;11.40;99.90;;;;;;6312766;22;20006;-87
2022/11/02 10:13:06;;;;;;;166.38;66.82;;;11.40;99.90;;;;;;6312501;22;20002;-85
2022/11/02 10:15:48;;;;;;;195.98;75.30;;;11.40;99.90;;;;;;6339859;22;20003;-85
2022/11/02 10:18:25;;;;;;;175.77;70.53;;;11.40;99.90;;;;;;6339883;22;19990;-84
2022/11/02 10:20:55;;;;;;;173.25;62.65;;;11.50;99.90;;;;;;6340515;22;19998;-87
2022/11/02 10:23:35;;;;;;;179.07;70.70;;;11.40;99.90;;;;;;6313027;22;20068;-85
2022/11/02 10:26:02;;;;;;;197.07;65.20;;;11.40;99.90;;;;;;6340846;22;19995;-83
2022/11/02 10:28:35;;;;;;;161.10;64.47;;;11.30;99.90;;;;;;6341088;22;19998;-86
2022/11/02 10:31:02;;;;;;;169.45;67.05;;;11.20;99.90;;;;;;6340571;22;19995;-85
2022/11/02 10:33:30;;;;;;;203.57;74.35;;;11.30;99.90;;;;;;6340767;22;19997;-85
2022/11/02 10:36:26;;;;;;;204.75;78.60;;;11.30;99.90;;;;;;6313043;22;20024;-84
2022/11/02 10:39:35;;;;;;;160.10;69.78;;;11.40;99.90;;;;;;6310857;22;20003;-84
2022/11/02 10:42:22;;;;;;;172.52;71.75;;;11.40;99.90;;;;;;6312459;22;19995;-86
2022/11/02 10:45:14;;;;;;;181.85;72.38;;;11.40;99.90;;;;;;6340525;22;19990;-83
2022/11/02 10:47:53;;;;;;;227.60;106.75;;;11.50;99.90;;;;;;6340712;22;19991;-84
2022/11/02 10:50:47;;;;;;;192.45;86.47;;;11.60;99.90;;;;;;6313237;22;20026;-85
2022/11/02 10:53:16;;;;;;;196.55;91.68;;;11.70;99.90;;;;;;6312923;22;20025;-84
2022/11/02 10:56:11;;;;;;;170.98;77.80;;;11.70;99.90;;;;;;6339971;22;20257;-87
2022/11/02 10:58:43;;;;;;;158.77;68.13;;;11.70;99.90;;;;;;6311628;22;20055;-84
2022/11/02 11:01:11;;;;;;;154.40;65.78;;;11.80;99.90;;;;;;6340515;22;19987;-84
2022/11/02 11:03:56;;;;;;;150.80;69.47;;;11.80;99.90;;;;;;6313316;22;20006;-85
2022/11/02 11:06:33;;;;;;;152.30;76.03;;;11.80;99.90;;;;;;6340844;22;19994;-84
2022/11/02 11:09:20;;;;;;;147.38;68.97;;;11.90;99.90;;;;;;6340096;22;19994;-86
2022/11/02 11:11:54;;;;;;;119.25;56.13;;;11.90;99.90;;;;;;6277423;22;19998;-85
2022/11/02 11:14:22;;;;;;;128.68;63.20;;;11.90;99.90;;;;;;6312594;22;19999;-84
2022/11/02 11:16:53;;;;;;;132.25;62.80;;;11.90;99.90;;;;;;6307284;22;20065;-83
2022/11/02 11:19:26;;;;;;;138.00;63.72;;;12.00;99.90;;;;;;6282006;22;20006;-84
2022/11/02 11:21:52;;;;;;;104.00;52.00;;;12.00;99.90;;;;;;6281733;22;19999;-83
2022/11/02 11:24:26;;;;;;;108.80;53.28;;;12.00;99.90;;;;;;6309045;22;19998;-84
2022/11/02 11:27:20;;;;;;;121.15;54.78;;;12.10;99.90;;;;;;6309224;22;19992;-85
2022/11/02 11:29:54;;;;;;;119.10;57.53;;;12.10;99.90;;;;;;6281636;22;20090;-85
2022/11/02 11:32:26;;;;;;;99.05;51.83;;;12.10;99.90;;;;;;6309201;22;19999;-87
2022/11/02 11:34:57;;;;;;;101.65;49.83;;;12.10;99.90;;;;;;6281595;22;20003;-86
2022/11/02 11:37:24;;;;;;;98.93;51.30;;;12.10;99.90;;;;;;6309152;22;20027;-84
2022/11/02 11:39:57;;;;;;;111.15;52.15;;;12.10;99.90;;;;;;6309059;22;20003;-85
2022/11/02 11:42:27;;;;;;;109.95;56.17;;;12.20;99.90;;;;;;6281574;22;20003;-83
2022/11/02 11:45:03;;;;;;;108.40;53.78;;;12.20;99.90;;;;;;6281799;22;19999;-84
2022/11/02 11:47:34;;;;;;;124.50;60.92;;;12.20;99.90;;;;;;6308842;22;19995;-85
2022/11/02 11:50:04;;;;;;;104.25;53.10;;;12.30;99.90;;;;;;6308809;22;20085;-85
2022/11/02 11:52:31;;;;;;;104.35;52.42;;;12.40;99.90;;;;;;6281691;22;20003;-86
2022/11/02 11:54:59;;;;;;;111.40;57.10;;;12.40;99.90;;;;;;6281544;22;19999;-85
2022/11/02 11:57:31;;;;;;;108.70;55.13;;;12.50;99.90;;;;;;6281498;22;19999;-84
2022/11/02 12:00:00;;;;;;;;;;;12.40;99.90;;;;;;6307999;22;20002;-87
2022/11/02 12:02:29;;;;;;;111.03;53.38;;;12.40;99.90;;;;;;6281536;22;19917;-85
2022/11/02 12:05:01;;;;;;;107.22;53.20;;;12.40;99.90;;;;;;6281159;22;20545;-85
2022/11/02 12:07:26;;;;;;;;;;;12.40;99.90;;;;;;6281977;22;19999;-85
2022/11/02 12:10:04;;;;;;;105.78;52.88;;;12.40;99.90;;;;;;6308535;22;19902;-85
2022/11/02 12:12:48;;;;;;;105.45;51.45;;;12.40;99.90;;;;;;6307672;22;19992;-85
2022/11/02 12:15:57;;;;;;;109.85;53.65;;;12.50;99.90;;;;;;6287079;22;20349;-87
2022/11/02 12:18:38;;;;;;;108.20;51.72;;;12.50;99.90;;;;;;6311336;22;20083;-87
2022/11/02 12:21:06;;;;;;;98.57;53.42;;;12.50;99.90;;;;;;6311578;22;19998;-86
2022/11/02 12:24:09;;;;;;;105.72;55.83;;;12.50;99.90;;;;;;6338784;22;19994;-85
2022/11/02 12:26:35;;;;;;;104.78;54.30;;;12.60;99.90;;;;;;6338756;22;19987;-84
2022/11/02 12:29:34;;;;;;;92.57;48.80;;;12.80;99.90;;;;;;6338764;22;20002;-85
2022/11/02 12:32:07;;;;;;;88.65;47.20;;;13.00;99.90;;;;;;6338932;22;19999;-86
2022/11/02 12:34:53;;;;;;;89.05;48.47;;;13.00;99.90;;;;;;6311230;22;20304;-86
2022/11/02 12:38:04;;;;;;;92.18;46.58;;;13.10;99.90;;;;;;6339657;22;19997;-88
2022/11/02 12:40:50;;;;;;;91.93;50.92;;;13.20;99.90;;;;;;6305882;22;20293;-87
2022/11/02 12:43:21;;;;;;;88.20;46.35;;;13.20;99.90;;;;;;6338747;22;20066;-82
2022/11/02 12:46:01;;;;;;;86.32;44.85;;;13.30;99.90;;;;;;6338747;22;19999;-84
2022/11/02 12:48:56;;;;;;;98.68;51.00;;;13.40;99.90;;;;;;6339044;22;20021;-84
2022/11/02 12:51:47;;;;;;;92.63;49.55;;;13.40;99.90;;;;;;6339228;22;20065;-85